sensor_id;sensor_type;location;lat;lon;timestamp;temperature;humidity
50544;DHT22;41176;44.032;20.900;2022-08-18T00:01:54;23.70;88.30
50544;DHT22;41176;44.032;20.900;2022-08-18T00:04:24;23.50;89.00
50544;DHT22;41176;44.032;20.900;2022-08-18T00:06:50;23.40;90.00
50544;DHT22;41176;44.032;20.900;2022-08-18T00:09:16;23.30;90.20
50544;DHT22;41176;44.032;20.900;2022-08-18T00:11:42;23.30;90.30
50544;DHT22;41176;44.032;20.900;2022-08-18T00:14:15;23.20;90.40
50544;DHT22;41176;44.032;20.900;2022-08-18T00:16:40;23.20;90.60
50544;DHT22;41176;44.032;20.900;2022-08-18T00:19:06;23.20;90.70
50544;DHT22;41176;44.032;20.900;2022-08-18T00:21:33;23.10;90.80
50544;DHT22;41176;44.032;20.900;2022-08-18T00:23:59;23.10;90.90
50544;DHT22;41176;44.032;20.900;2022-08-18T00:26:25;23.10;91.00
50544;DHT22;41176;44.032;20.900;2022-08-18T00:28:51;23.10;91.10
50544;DHT22;41176;44.032;20.900;2022-08-18T00:31:17;23.10;91.20
50544;DHT22;41176;44.032;20.900;2022-08-18T00:33:42;23.00;91.40
50544;DHT22;41176;44.032;20.900;2022-08-18T00:36:10;22.90;91.70
50544;DHT22;41176;44.032;20.900;2022-08-18T00:38:36;22.90;91.80
50544;DHT22;41176;44.032;20.900;2022-08-18T00:41:03;22.90;91.90
50544;DHT22;41176;44.032;20.900;2022-08-18T00:46:02;22.90;92.10
50544;DHT22;41176;44.032;20.900;2022-08-18T00:48:30;22.80;92.20
50544;DHT22;41176;44.032;20.900;2022-08-18T00:51:03;22.80;92.30
50544;DHT22;41176;44.032;20.900;2022-08-18T00:56:37;22.80;92.30
50544;DHT22;41176;44.032;20.900;2022-08-18T00:59:13;22.80;92.30
50544;DHT22;41176;44.032;20.900;2022-08-18T01:01:41;22.80;92.50
50544;DHT22;41176;44.032;20.900;2022-08-18T01:04:13;22.60;93.00
50544;DHT22;41176;44.032;20.900;2022-08-18T01:06:45;22.60;93.40
50544;DHT22;41176;44.032;20.900;2022-08-18T01:09:12;22.40;93.80
50544;DHT22;41176;44.032;20.900;2022-08-18T01:11:38;22.40;94.30
50544;DHT22;41176;44.032;20.900;2022-08-18T01:14:08;22.40;94.50
50544;DHT22;41176;44.032;20.900;2022-08-18T01:16:34;22.40;94.80
50544;DHT22;41176;44.032;20.900;2022-08-18T01:19:19;22.30;94.90
50544;DHT22;41176;44.032;20.900;2022-08-18T01:22:16;22.30;95.30
50544;DHT22;41176;44.032;20.900;2022-08-18T01:24:43;22.30;95.50
50544;DHT22;41176;44.032;20.900;2022-08-18T01:27:28;22.30;95.40
50544;DHT22;41176;44.032;20.900;2022-08-18T01:29:57;22.30;95.20
50544;DHT22;41176;44.032;20.900;2022-08-18T01:32:26;22.40;94.80
50544;DHT22;41176;44.032;20.900;2022-08-18T01:34:52;22.40;95.00
50544;DHT22;41176;44.032;20.900;2022-08-18T01:37:22;22.40;95.10
50544;DHT22;41176;44.032;20.900;2022-08-18T01:39:49;22.40;95.00
50544;DHT22;41176;44.032;20.900;2022-08-18T01:42:15;22.40;95.20
50544;DHT22;41176;44.032;20.900;2022-08-18T01:44:43;22.40;95.20
50544;DHT22;41176;44.032;20.900;2022-08-18T01:47:10;22.40;95.10
50544;DHT22;41176;44.032;20.900;2022-08-18T01:49:37;22.40;94.90
50544;DHT22;41176;44.032;20.900;2022-08-18T01:52:04;22.40;94.70
50544;DHT22;41176;44.032;20.900;2022-08-18T01:54:32;22.50;94.70
50544;DHT22;41176;44.032;20.900;2022-08-18T01:56:58;22.50;94.40
50544;DHT22;41176;44.032;20.900;2022-08-18T01:59:24;22.50;94.40
50544;DHT22;41176;44.032;20.900;2022-08-18T02:01:50;22.60;94.20
50544;DHT22;41176;44.032;20.900;2022-08-18T02:04:17;22.60;94.20
50544;DHT22;41176;44.032;20.900;2022-08-18T02:06:44;22.60;94.00
50544;DHT22;41176;44.032;20.900;2022-08-18T02:09:09;22.70;94.10
50544;DHT22;41176;44.032;20.900;2022-08-18T02:11:35;22.70;93.90
50544;DHT22;41176;44.032;20.900;2022-08-18T02:14:01;22.70;93.80
50544;DHT22;41176;44.032;20.900;2022-08-18T02:16:26;22.70;93.60
50544;DHT22;41176;44.032;20.900;2022-08-18T02:18:52;22.70;93.60
50544;DHT22;41176;44.032;20.900;2022-08-18T02:21:19;22.70;93.60
50544;DHT22;41176;44.032;20.900;2022-08-18T02:23:47;22.70;93.60
50544;DHT22;41176;44.032;20.900;2022-08-18T02:26:15;22.70;93.60
50544;DHT22;41176;44.032;20.900;2022-08-18T02:28:41;22.70;93.70
50544;DHT22;41176;44.032;20.900;2022-08-18T02:31:11;22.70;93.60
50544;DHT22;41176;44.032;20.900;2022-08-18T02:33:37;22.70;93.60
50544;DHT22;41176;44.032;20.900;2022-08-18T02:36:03;22.70;93.60
50544;DHT22;41176;44.032;20.900;2022-08-18T02:38:29;22.70;93.60
50544;DHT22;41176;44.032;20.900;2022-08-18T02:41:00;22.70;93.70
50544;DHT22;41176;44.032;20.900;2022-08-18T02:43:26;22.70;94.00
50544;DHT22;41176;44.032;20.900;2022-08-18T02:45:53;22.60;94.00
50544;DHT22;41176;44.032;20.900;2022-08-18T02:48:19;22.60;94.20
50544;DHT22;41176;44.032;20.900;2022-08-18T02:51:14;22.50;94.40
50544;DHT22;41176;44.032;20.900;2022-08-18T02:53:42;22.50;94.50
50544;DHT22;41176;44.032;20.900;2022-08-18T02:58:59;22.40;95.10
50544;DHT22;41176;44.032;20.900;2022-08-18T03:01:30;22.30;95.50
50544;DHT22;41176;44.032;20.900;2022-08-18T03:03:58;22.20;95.50
50544;DHT22;41176;44.032;20.900;2022-08-18T03:06:25;22.30;95.60
50544;DHT22;41176;44.032;20.900;2022-08-18T03:08:52;22.30;95.70
50544;DHT22;41176;44.032;20.900;2022-08-18T03:11:23;22.20;96.00
50544;DHT22;41176;44.032;20.900;2022-08-18T03:13:50;22.20;96.30
50544;DHT22;41176;44.032;20.900;2022-08-18T03:16:16;21.90;97.10
50544;DHT22;41176;44.032;20.900;2022-08-18T03:18:43;21.90;97.60
50544;DHT22;41176;44.032;20.900;2022-08-18T03:21:12;21.80;98.30
50544;DHT22;41176;44.032;20.900;2022-08-18T03:23:38;21.60;98.50
50544;DHT22;41176;44.032;20.900;2022-08-18T03:26:06;21.50;99.00
50544;DHT22;41176;44.032;20.900;2022-08-18T03:28:43;21.40;99.70
50544;DHT22;41176;44.032;20.900;2022-08-18T03:31:11;21.10;99.90
50544;DHT22;41176;44.032;20.900;2022-08-18T03:33:41;21.00;99.90
50544;DHT22;41176;44.032;20.900;2022-08-18T03:36:13;20.90;99.90
50544;DHT22;41176;44.032;20.900;2022-08-18T03:38:40;20.90;99.90
50544;DHT22;41176;44.032;20.900;2022-08-18T03:41:11;20.80;99.90
50544;DHT22;41176;44.032;20.900;2022-08-18T03:43:38;20.80;99.90
50544;DHT22;41176;44.032;20.900;2022-08-18T03:46:07;20.80;99.90
50544;DHT22;41176;44.032;20.900;2022-08-18T03:48:35;20.80;99.90
50544;DHT22;41176;44.032;20.900;2022-08-18T03:51:04;20.90;99.90
50544;DHT22;41176;44.032;20.900;2022-08-18T03:53:32;21.00;99.90
50544;DHT22;41176;44.032;20.900;2022-08-18T03:55:59;21.00;99.90
50544;DHT22;41176;44.032;20.900;2022-08-18T03:58:25;21.10;99.90
50544;DHT22;41176;44.032;20.900;2022-08-18T04:00:52;21.10;99.90
50544;DHT22;41176;44.032;20.900;2022-08-18T04:03:18;21.10;99.90
50544;DHT22;41176;44.032;20.900;2022-08-18T04:05:43;21.10;99.90
50544;DHT22;41176;44.032;20.900;2022-08-18T04:08:10;21.20;99.90
50544;DHT22;41176;44.032;20.900;2022-08-18T04:10:35;21.30;99.90
50544;DHT22;41176;44.032;20.900;2022-08-18T04:13:01;21.30;99.90
50544;DHT22;41176;44.032;20.900;2022-08-18T04:15:31;21.30;99.90
50544;DHT22;41176;44.032;20.900;2022-08-18T04:18:00;21.40;99.90
50544;DHT22;41176;44.032;20.900;2022-08-18T04:20:32;21.50;99.90
50544;DHT22;41176;44.032;20.900;2022-08-18T04:22:58;21.60;99.90
50544;DHT22;41176;44.032;20.900;2022-08-18T04:25:24;21.70;99.90
50544;DHT22;41176;44.032;20.900;2022-08-18T04:27:51;21.70;99.90
50544;DHT22;41176;44.032;20.900;2022-08-18T04:30:22;21.60;99.90
50544;DHT22;41176;44.032;20.900;2022-08-18T04:32:48;21.70;99.90
50544;DHT22;41176;44.032;20.900;2022-08-18T04:35:15;21.70;99.90
50544;DHT22;41176;44.032;20.900;2022-08-18T04:37:40;21.80;99.90
50544;DHT22;41176;44.032;20.900;2022-08-18T04:40:09;21.90;99.90
50544;DHT22;41176;44.032;20.900;2022-08-18T04:42:35;22.00;99.90
50544;DHT22;41176;44.032;20.900;2022-08-18T04:45:01;22.00;99.90
50544;DHT22;41176;44.032;20.900;2022-08-18T04:47:27;22.10;99.90
50544;DHT22;41176;44.032;20.900;2022-08-18T04:49:53;22.10;99.90
50544;DHT22;41176;44.032;20.900;2022-08-18T04:52:19;22.20;99.90
50544;DHT22;41176;44.032;20.900;2022-08-18T04:55:04;22.30;99.90
50544;DHT22;41176;44.032;20.900;2022-08-18T04:57:30;22.30;99.90
50544;DHT22;41176;44.032;20.900;2022-08-18T04:59:58;22.40;99.90
50544;DHT22;41176;44.032;20.900;2022-08-18T05:02:24;22.40;99.90
50544;DHT22;41176;44.032;20.900;2022-08-18T05:04:50;22.50;99.90
50544;DHT22;41176;44.032;20.900;2022-08-18T05:07:19;22.60;99.90
50544;DHT22;41176;44.032;20.900;2022-08-18T05:09:46;22.60;99.90
50544;DHT22;41176;44.032;20.900;2022-08-18T05:12:14;22.70;99.80
50544;DHT22;41176;44.032;20.900;2022-08-18T05:14:41;22.80;99.90
50544;DHT22;41176;44.032;20.900;2022-08-18T05:17:09;22.80;99.90
50544;DHT22;41176;44.032;20.900;2022-08-18T05:19:36;22.80;99.90
50544;DHT22;41176;44.032;20.900;2022-08-18T05:22:02;22.90;99.90
50544;DHT22;41176;44.032;20.900;2022-08-18T05:24:29;22.90;99.90
50544;DHT22;41176;44.032;20.900;2022-08-18T05:26:56;22.90;99.90
50544;DHT22;41176;44.032;20.900;2022-08-18T05:29:22;22.80;99.90
50544;DHT22;41176;44.032;20.900;2022-08-18T05:31:48;22.80;99.90
50544;DHT22;41176;44.032;20.900;2022-08-18T05:34:16;22.70;99.90
50544;DHT22;41176;44.032;20.900;2022-08-18T05:44:33;23.20;99.90
50544;DHT22;41176;44.032;20.900;2022-08-18T05:47:03;23.40;99.90
50544;DHT22;41176;44.032;20.900;2022-08-18T05:49:32;23.50;99.90
50544;DHT22;41176;44.032;20.900;2022-08-18T05:52:02;23.60;99.90
50544;DHT22;41176;44.032;20.900;2022-08-18T05:54:53;23.70;99.90
50544;DHT22;41176;44.032;20.900;2022-08-18T05:57:46;23.90;99.20
50544;DHT22;41176;44.032;20.900;2022-08-18T06:00:17;24.00;99.40
50544;DHT22;41176;44.032;20.900;2022-08-18T06:02:55;24.10;97.80
50544;DHT22;41176;44.032;20.900;2022-08-18T06:05:30;24.10;96.50
50544;DHT22;41176;44.032;20.900;2022-08-18T06:08:12;24.20;96.10
50544;DHT22;41176;44.032;20.900;2022-08-18T06:10:41;24.30;96.90
50544;DHT22;41176;44.032;20.900;2022-08-18T06:13:09;24.40;95.90
50544;DHT22;41176;44.032;20.900;2022-08-18T06:26:55;25.00;93.50
50544;DHT22;41176;44.032;20.900;2022-08-18T06:29:47;25.20;93.70
50544;DHT22;41176;44.032;20.900;2022-08-18T06:35:05;25.50;94.00
50544;DHT22;41176;44.032;20.900;2022-08-18T06:40:32;25.90;91.80
50544;DHT22;41176;44.032;20.900;2022-08-18T06:42:58;26.10;92.30
50544;DHT22;41176;44.032;20.900;2022-08-18T06:45:30;26.40;91.90
50544;DHT22;41176;44.032;20.900;2022-08-18T06:50:59;27.70;86.50
50544;DHT22;41176;44.032;20.900;2022-08-18T06:53:48;28.30;83.50
50544;DHT22;41176;44.032;20.900;2022-08-18T06:56:31;28.70;80.00
50544;DHT22;41176;44.032;20.900;2022-08-18T07:01:56;29.60;76.20
50544;DHT22;41176;44.032;20.900;2022-08-18T07:04:35;29.80;72.80
50544;DHT22;41176;44.032;20.900;2022-08-18T07:07:33;30.10;72.80
50544;DHT22;41176;44.032;20.900;2022-08-18T07:10:01;30.40;70.90
50544;DHT22;41176;44.032;20.900;2022-08-18T07:12:28;30.50;70.20
50544;DHT22;41176;44.032;20.900;2022-08-18T07:14:57;30.70;69.50
50544;DHT22;41176;44.032;20.900;2022-08-18T07:17:30;30.90;68.00
50544;DHT22;41176;44.032;20.900;2022-08-18T07:20:17;31.10;68.70
50544;DHT22;41176;44.032;20.900;2022-08-18T07:23:01;31.00;65.70
50544;DHT22;41176;44.032;20.900;2022-08-18T07:25:31;31.20;68.40
50544;DHT22;41176;44.032;20.900;2022-08-18T07:28:02;31.60;68.00
50544;DHT22;41176;44.032;20.900;2022-08-18T07:30:32;31.90;66.50
50544;DHT22;41176;44.032;20.900;2022-08-18T07:33:19;32.10;67.20
50544;DHT22;41176;44.032;20.900;2022-08-18T07:35:51;32.10;65.10
50544;DHT22;41176;44.032;20.900;2022-08-18T07:38:47;32.30;67.30
50544;DHT22;41176;44.032;20.900;2022-08-18T07:41:32;32.70;62.50
50544;DHT22;41176;44.032;20.900;2022-08-18T07:44:15;32.70;63.40
50544;DHT22;41176;44.032;20.900;2022-08-18T07:47:06;32.50;62.10
50544;DHT22;41176;44.032;20.900;2022-08-18T07:49:35;32.60;62.20
50544;DHT22;41176;44.032;20.900;2022-08-18T07:52:10;32.60;61.80
50544;DHT22;41176;44.032;20.900;2022-08-18T07:55:02;32.70;60.50
50544;DHT22;41176;44.032;20.900;2022-08-18T07:57:42;32.70;63.90
50544;DHT22;41176;44.032;20.900;2022-08-18T08:00:40;33.00;60.60
50544;DHT22;41176;44.032;20.900;2022-08-18T08:03:46;33.20;61.80
50544;DHT22;41176;44.032;20.900;2022-08-18T08:06:31;33.30;60.00
50544;DHT22;41176;44.032;20.900;2022-08-18T08:11:56;33.10;59.10
50544;DHT22;41176;44.032;20.900;2022-08-18T08:14:38;33.10;61.40
50544;DHT22;41176;44.032;20.900;2022-08-18T08:25:25;33.00;59.00
50544;DHT22;41176;44.032;20.900;2022-08-18T08:30:23;33.60;58.10
50544;DHT22;41176;44.032;20.900;2022-08-18T08:38:05;33.70;58.50
50544;DHT22;41176;44.032;20.900;2022-08-18T08:40:50;34.10;56.90
50544;DHT22;41176;44.032;20.900;2022-08-18T08:43:24;34.00;57.50
50544;DHT22;41176;44.032;20.900;2022-08-18T08:48:39;33.90;57.00
50544;DHT22;41176;44.032;20.900;2022-08-18T08:53:46;34.10;58.90
50544;DHT22;41176;44.032;20.900;2022-08-18T08:56:15;34.10;56.60
50544;DHT22;41176;44.032;20.900;2022-08-18T08:59:01;34.50;55.80
50544;DHT22;41176;44.032;20.900;2022-08-18T09:15:02;35.40;53.70
50544;DHT22;41176;44.032;20.900;2022-08-18T09:17:57;35.40;54.10
50544;DHT22;41176;44.032;20.900;2022-08-18T09:20:35;35.20;54.60
50544;DHT22;41176;44.032;20.900;2022-08-18T09:23:20;35.40;55.30
50544;DHT22;41176;44.032;20.900;2022-08-18T09:25:52;35.40;54.70
50544;DHT22;41176;44.032;20.900;2022-08-18T09:28:22;35.80;53.80
50544;DHT22;41176;44.032;20.900;2022-08-18T09:33:45;35.70;52.60
50544;DHT22;41176;44.032;20.900;2022-08-18T09:39:29;35.80;54.30
50544;DHT22;41176;44.032;20.900;2022-08-18T09:42:38;36.00;52.50
50544;DHT22;41176;44.032;20.900;2022-08-18T09:45:09;36.00;52.40
50544;DHT22;41176;44.032;20.900;2022-08-18T09:55:01;36.00;53.60
50544;DHT22;41176;44.032;20.900;2022-08-18T09:57:32;36.00;53.20
50544;DHT22;41176;44.032;20.900;2022-08-18T10:10:51;35.70;54.00
50544;DHT22;41176;44.032;20.900;2022-08-18T10:16:27;35.90;49.80
50544;DHT22;41176;44.032;20.900;2022-08-18T10:24:32;36.30;53.50
50544;DHT22;41176;44.032;20.900;2022-08-18T10:27:06;35.60;49.50
50544;DHT22;41176;44.032;20.900;2022-08-18T10:29:50;35.80;53.70
50544;DHT22;41176;44.032;20.900;2022-08-18T10:32:22;35.80;50.30
50544;DHT22;41176;44.032;20.900;2022-08-18T10:34:51;35.90;46.60
50544;DHT22;41176;44.032;20.900;2022-08-18T10:39:59;35.90;48.60
50544;DHT22;41176;44.032;20.900;2022-08-18T10:42:49;35.90;46.60
50544;DHT22;41176;44.032;20.900;2022-08-18T10:45:28;36.10;48.00
50544;DHT22;41176;44.032;20.900;2022-08-18T10:50:42;36.20;49.90
50544;DHT22;41176;44.032;20.900;2022-08-18T10:56:32;36.80;48.40
50544;DHT22;41176;44.032;20.900;2022-08-18T11:02:12;36.60;48.50
50544;DHT22;41176;44.032;20.900;2022-08-18T11:04:44;36.70;48.70
50544;DHT22;41176;44.032;20.900;2022-08-18T11:07:16;36.80;48.20
50544;DHT22;41176;44.032;20.900;2022-08-18T11:09:49;37.00;49.60
50544;DHT22;41176;44.032;20.900;2022-08-18T11:15:16;36.40;46.10
50544;DHT22;41176;44.032;20.900;2022-08-18T11:20:27;35.80;47.30
50544;DHT22;41176;44.032;20.900;2022-08-18T11:22:58;35.70;49.40
50544;DHT22;41176;44.032;20.900;2022-08-18T11:25:34;36.00;50.40
50544;DHT22;41176;44.032;20.900;2022-08-18T11:28:01;36.10;48.40
50544;DHT22;41176;44.032;20.900;2022-08-18T11:30:36;35.80;47.30
50544;DHT22;41176;44.032;20.900;2022-08-18T11:33:06;35.70;51.30
50544;DHT22;41176;44.032;20.900;2022-08-18T11:35:47;35.80;51.00
50544;DHT22;41176;44.032;20.900;2022-08-18T11:38:16;35.90;50.80
50544;DHT22;41176;44.032;20.900;2022-08-18T11:40:47;36.10;50.90
50544;DHT22;41176;44.032;20.900;2022-08-18T11:43:34;36.00;51.00
50544;DHT22;41176;44.032;20.900;2022-08-18T11:48:45;35.40;50.50
50544;DHT22;41176;44.032;20.900;2022-08-18T11:51:25;35.20;48.90
50544;DHT22;41176;44.032;20.900;2022-08-18T11:53:59;35.40;49.50
50544;DHT22;41176;44.032;20.900;2022-08-18T11:56:29;35.40;53.50
50544;DHT22;41176;44.032;20.900;2022-08-18T11:59:03;35.60;50.20
50544;DHT22;41176;44.032;20.900;2022-08-18T12:06:58;35.50;47.90
50544;DHT22;41176;44.032;20.900;2022-08-18T12:09:45;35.10;48.70
50544;DHT22;41176;44.032;20.900;2022-08-18T12:12:27;35.20;51.50
50544;DHT22;41176;44.032;20.900;2022-08-18T12:17:40;35.30;54.90
50544;DHT22;41176;44.032;20.900;2022-08-18T12:20:07;35.50;50.80
50544;DHT22;41176;44.032;20.900;2022-08-18T12:22:34;35.50;50.60
50544;DHT22;41176;44.032;20.900;2022-08-18T12:25:02;35.50;48.50
50544;DHT22;41176;44.032;20.900;2022-08-18T12:27:28;35.40;50.80
50544;DHT22;41176;44.032;20.900;2022-08-18T12:29:56;35.50;50.60
50544;DHT22;41176;44.032;20.900;2022-08-18T12:32:25;35.40;48.50
50544;DHT22;41176;44.032;20.900;2022-08-18T12:34:51;35.20;51.00
50544;DHT22;41176;44.032;20.900;2022-08-18T12:37:23;35.40;51.00
50544;DHT22;41176;44.032;20.900;2022-08-18T12:39:50;35.50;52.50
50544;DHT22;41176;44.032;20.900;2022-08-18T12:42:16;35.70;51.30
50544;DHT22;41176;44.032;20.900;2022-08-18T12:44:42;35.80;53.80
50544;DHT22;41176;44.032;20.900;2022-08-18T12:47:14;35.90;52.60
50544;DHT22;41176;44.032;20.900;2022-08-18T12:49:41;35.90;50.50
50544;DHT22;41176;44.032;20.900;2022-08-18T12:52:07;35.90;48.00
50544;DHT22;41176;44.032;20.900;2022-08-18T12:54:34;35.90;49.10
50544;DHT22;41176;44.032;20.900;2022-08-18T12:57:01;36.00;48.40
50544;DHT22;41176;44.032;20.900;2022-08-18T12:59:28;35.90;49.30
50544;DHT22;41176;44.032;20.900;2022-08-18T13:01:54;35.80;47.20
50544;DHT22;41176;44.032;20.900;2022-08-18T13:04:20;35.70;47.50
50544;DHT22;41176;44.032;20.900;2022-08-18T13:06:51;35.40;47.40
50544;DHT22;41176;44.032;20.900;2022-08-18T13:09:19;35.50;49.00
50544;DHT22;41176;44.032;20.900;2022-08-18T13:11:45;35.50;49.90
50544;DHT22;41176;44.032;20.900;2022-08-18T13:14:11;35.60;52.40
50544;DHT22;41176;44.032;20.900;2022-08-18T13:16:40;35.60;51.30
50544;DHT22;41176;44.032;20.900;2022-08-18T13:19:08;35.70;53.30
50544;DHT22;41176;44.032;20.900;2022-08-18T13:21:34;35.80;53.10
50544;DHT22;41176;44.032;20.900;2022-08-18T13:24:00;35.90;51.70
50544;DHT22;41176;44.032;20.900;2022-08-18T13:26:28;35.90;52.40
50544;DHT22;41176;44.032;20.900;2022-08-18T13:28:55;35.90;51.30
50544;DHT22;41176;44.032;20.900;2022-08-18T13:31:21;36.00;50.10
50544;DHT22;41176;44.032;20.900;2022-08-18T13:33:47;36.00;52.10
50544;DHT22;41176;44.032;20.900;2022-08-18T13:36:14;36.10;51.50
50544;DHT22;41176;44.032;20.900;2022-08-18T13:38:40;36.20;51.70
50544;DHT22;41176;44.032;20.900;2022-08-18T13:41:07;36.10;51.70
50544;DHT22;41176;44.032;20.900;2022-08-18T13:43:36;35.90;50.10
50544;DHT22;41176;44.032;20.900;2022-08-18T13:46:10;35.90;51.50
50544;DHT22;41176;44.032;20.900;2022-08-18T13:48:37;35.90;50.40
50544;DHT22;41176;44.032;20.900;2022-08-18T13:51:05;35.90;52.30
50544;DHT22;41176;44.032;20.900;2022-08-18T13:53:34;35.90;51.90
50544;DHT22;41176;44.032;20.900;2022-08-18T13:56:00;35.90;52.60
50544;DHT22;41176;44.032;20.900;2022-08-18T13:58:27;35.90;50.20
50544;DHT22;41176;44.032;20.900;2022-08-18T14:00:58;35.90;52.30
50544;DHT22;41176;44.032;20.900;2022-08-18T14:03:24;35.90;51.80
50544;DHT22;41176;44.032;20.900;2022-08-18T14:05:51;35.90;51.40
50544;DHT22;41176;44.032;20.900;2022-08-18T14:08:18;35.80;50.90
50544;DHT22;41176;44.032;20.900;2022-08-18T14:10:46;35.80;51.70
50544;DHT22;41176;44.032;20.900;2022-08-18T14:13:13;35.90;53.90
50544;DHT22;41176;44.032;20.900;2022-08-18T14:15:39;35.80;51.80
50544;DHT22;41176;44.032;20.900;2022-08-18T14:18:06;35.80;50.40
50544;DHT22;41176;44.032;20.900;2022-08-18T14:20:32;35.80;50.20
50544;DHT22;41176;44.032;20.900;2022-08-18T14:23:16;35.80;50.30
50544;DHT22;41176;44.032;20.900;2022-08-18T14:26:00;35.70;50.70
50544;DHT22;41176;44.032;20.900;2022-08-18T14:28:44;35.80;49.40
50544;DHT22;41176;44.032;20.900;2022-08-18T14:31:10;35.90;50.50
50544;DHT22;41176;44.032;20.900;2022-08-18T14:33:39;35.80;50.40
50544;DHT22;41176;44.032;20.900;2022-08-18T14:36:05;35.80;50.00
50544;DHT22;41176;44.032;20.900;2022-08-18T14:38:31;35.80;51.20
50544;DHT22;41176;44.032;20.900;2022-08-18T14:41:00;35.80;51.30
50544;DHT22;41176;44.032;20.900;2022-08-18T14:43:27;35.80;50.50
50544;DHT22;41176;44.032;20.900;2022-08-18T14:45:53;35.80;51.80
50544;DHT22;41176;44.032;20.900;2022-08-18T14:48:20;35.90;52.00
50544;DHT22;41176;44.032;20.900;2022-08-18T14:50:50;35.90;52.30
50544;DHT22;41176;44.032;20.900;2022-08-18T14:53:18;35.90;51.90
50544;DHT22;41176;44.032;20.900;2022-08-18T14:55:45;35.90;52.00
50544;DHT22;41176;44.032;20.900;2022-08-18T14:58:13;35.90;52.10
50544;DHT22;41176;44.032;20.900;2022-08-18T15:00:39;35.90;51.60
50544;DHT22;41176;44.032;20.900;2022-08-18T15:03:05;35.90;51.40
50544;DHT22;41176;44.032;20.900;2022-08-18T15:05:32;35.90;51.90
50544;DHT22;41176;44.032;20.900;2022-08-18T15:07:58;36.00;51.40
50544;DHT22;41176;44.032;20.900;2022-08-18T15:10:24;36.20;53.00
50544;DHT22;41176;44.032;20.900;2022-08-18T15:12:50;36.40;50.80
50544;DHT22;41176;44.032;20.900;2022-08-18T15:15:17;36.60;50.70
50544;DHT22;41176;44.032;20.900;2022-08-18T15:17:43;36.90;50.70
50544;DHT22;41176;44.032;20.900;2022-08-18T15:20:09;37.00;49.40
50544;DHT22;41176;44.032;20.900;2022-08-18T15:22:40;36.80;50.80
50544;DHT22;41176;44.032;20.900;2022-08-18T15:25:25;36.60;51.20
50544;DHT22;41176;44.032;20.900;2022-08-18T15:28:14;36.40;51.20
50544;DHT22;41176;44.032;20.900;2022-08-18T15:30:46;36.30;50.70
50544;DHT22;41176;44.032;20.900;2022-08-18T15:33:12;36.10;51.10
50544;DHT22;41176;44.032;20.900;2022-08-18T15:35:41;35.90;52.10
50544;DHT22;41176;44.032;20.900;2022-08-18T15:38:08;35.70;50.10
50544;DHT22;41176;44.032;20.900;2022-08-18T15:40:34;35.60;52.80
50544;DHT22;41176;44.032;20.900;2022-08-18T15:43:00;35.40;52.40
50544;DHT22;41176;44.032;20.900;2022-08-18T15:45:34;35.30;52.50
50544;DHT22;41176;44.032;20.900;2022-08-18T15:48:02;35.20;51.80
50544;DHT22;41176;44.032;20.900;2022-08-18T15:50:28;35.10;51.50
50544;DHT22;41176;44.032;20.900;2022-08-18T15:53:00;35.00;51.50
50544;DHT22;41176;44.032;20.900;2022-08-18T15:55:29;35.00;51.50
50544;DHT22;41176;44.032;20.900;2022-08-18T15:57:56;34.90;52.80
50544;DHT22;41176;44.032;20.900;2022-08-18T16:00:23;34.80;50.20
50544;DHT22;41176;44.032;20.900;2022-08-18T16:02:53;34.80;50.80
50544;DHT22;41176;44.032;20.900;2022-08-18T16:05:23;34.70;50.60
50544;DHT22;41176;44.032;20.900;2022-08-18T16:07:51;34.60;51.60
50544;DHT22;41176;44.032;20.900;2022-08-18T16:10:21;34.50;51.90
50544;DHT22;41176;44.032;20.900;2022-08-18T16:12:48;34.50;54.70
50544;DHT22;41176;44.032;20.900;2022-08-18T16:15:19;34.40;52.70
50544;DHT22;41176;44.032;20.900;2022-08-18T16:17:46;34.40;52.80
50544;DHT22;41176;44.032;20.900;2022-08-18T16:20:13;34.30;53.40
50544;DHT22;41176;44.032;20.900;2022-08-18T16:22:39;34.20;54.00
50544;DHT22;41176;44.032;20.900;2022-08-18T16:25:06;34.10;52.70
50544;DHT22;41176;44.032;20.900;2022-08-18T16:27:34;34.00;53.70
50544;DHT22;41176;44.032;20.900;2022-08-18T16:30:01;33.80;53.60
50544;DHT22;41176;44.032;20.900;2022-08-18T16:32:29;33.70;54.10
50544;DHT22;41176;44.032;20.900;2022-08-18T16:34:56;33.60;54.50
50544;DHT22;41176;44.032;20.900;2022-08-18T16:37:21;33.40;55.00
50544;DHT22;41176;44.032;20.900;2022-08-18T16:39:47;33.30;56.00
50544;DHT22;41176;44.032;20.900;2022-08-18T16:42:13;33.20;56.90
50544;DHT22;41176;44.032;20.900;2022-08-18T16:44:38;33.00;57.10
50544;DHT22;41176;44.032;20.900;2022-08-18T16:47:05;32.90;57.50
50544;DHT22;41176;44.032;20.900;2022-08-18T16:49:31;32.70;58.40
50544;DHT22;41176;44.032;20.900;2022-08-18T16:52:01;32.60;58.10
50544;DHT22;41176;44.032;20.900;2022-08-18T16:54:27;32.50;58.40
50544;DHT22;41176;44.032;20.900;2022-08-18T16:56:53;32.40;59.10
50544;DHT22;41176;44.032;20.900;2022-08-18T16:59:19;32.30;59.40
50544;DHT22;41176;44.032;20.900;2022-08-18T17:02:04;32.20;59.90
50544;DHT22;41176;44.032;20.900;2022-08-18T17:04:48;32.10;60.00
50544;DHT22;41176;44.032;20.900;2022-08-18T17:07:16;31.90;60.60
50544;DHT22;41176;44.032;20.900;2022-08-18T17:09:42;31.80;61.40
50544;DHT22;41176;44.032;20.900;2022-08-18T17:12:08;31.70;62.20
50544;DHT22;41176;44.032;20.900;2022-08-18T17:14:33;31.60;62.50
50544;DHT22;41176;44.032;20.900;2022-08-18T17:17:02;31.50;62.80
50544;DHT22;41176;44.032;20.900;2022-08-18T17:19:31;31.40;63.30
50544;DHT22;41176;44.032;20.900;2022-08-18T17:21:58;31.30;64.00
50544;DHT22;41176;44.032;20.900;2022-08-18T17:24:24;31.20;64.60
50544;DHT22;41176;44.032;20.900;2022-08-18T17:27:18;31.10;65.40
50544;DHT22;41176;44.032;20.900;2022-08-18T17:29:49;30.90;66.10
50544;DHT22;41176;44.032;20.900;2022-08-18T17:32:24;30.80;66.30
50544;DHT22;41176;44.032;20.900;2022-08-18T17:34:57;30.70;66.60
50544;DHT22;41176;44.032;20.900;2022-08-18T17:37:25;30.60;66.80
50544;DHT22;41176;44.032;20.900;2022-08-18T17:40:02;30.50;67.10
50544;DHT22;41176;44.032;20.900;2022-08-18T17:42:29;30.50;67.30
50544;DHT22;41176;44.032;20.900;2022-08-18T17:45:02;30.30;67.90
50544;DHT22;41176;44.032;20.900;2022-08-18T17:50:32;30.10;68.40
50544;DHT22;41176;44.032;20.900;2022-08-18T17:53:32;30.10;69.50
50544;DHT22;41176;44.032;20.900;2022-08-18T17:58:55;29.90;71.10
50544;DHT22;41176;44.032;20.900;2022-08-18T18:01:25;29.80;70.30